10°C Temp
5°C Dewpoint
71% Humidity
Temperature
8 KM/H
5 MPH
4 KTS
70°
East North
East

Wind Speed
Clear
Conditions
Pressure 1015.92 (hPa) - 30 (in)
Visibility 6.0 (mi) - 9.7 (km)

Current Conditions
EPRZ
Location 9(km)
Metar :EPRZ 272100Z 07004KT CAVOK 10/05 Q1016
Wed 28th February 00:00 am

Airport